Terminal Aerodrome Forecast
Issued by NWS

Home | Current Version | Previous Version | Text Only | Print | Product List | Glossary On
Versions: 1 2 3 4 5 6 7 8 9 10 11 12 13 14
000
FTUS45 KABQ 261736
TAFLVS
TAF
KLVS 261736Z 2618/2718 22011KT P6SM SCT050
     FM262100 26020G30KT P6SM BKN200
     FM270200 25009KT P6SM BKN120
     FM271500 26028G38KT P6SM OVC070=

USA.gov is the U.S. government's official web portal to all federal, state and local government web resources and services.